createdAt,value
2022-11-02T00:03:58.266Z,5.80
2022-11-02T00:09:00.338Z,5.78
2022-11-02T00:14:03.879Z,5.68
2022-11-02T00:19:08.628Z,5.63
2022-11-02T00:24:12.833Z,5.64
2022-11-02T00:29:16.236Z,5.45
2022-11-02T00:34:18.263Z,5.49
2022-11-02T00:39:20.133Z,5.48
2022-11-02T00:44:23.201Z,5.36
2022-11-02T00:49:25.376Z,5.41
2022-11-02T00:54:28.625Z,5.33
2022-11-02T00:59:32.323Z,5.34
2022-11-02T01:04:34.360Z,5.33
2022-11-02T01:09:36.372Z,5.23
2022-11-02T01:14:39.771Z,5.26
2022-11-02T01:19:42.151Z,5.26
2022-11-02T01:24:44.133Z,5.16
2022-11-02T01:29:47.493Z,5.06
2022-11-02T01:34:49.540Z,5.05
2022-11-02T01:39:51.637Z,5.06
2022-11-02T01:44:55.152Z,5.13
2022-11-02T01:50:03.286Z,5.17
2022-11-02T01:55:10.396Z,5.09
2022-11-02T02:00:16.698Z,4.99
2022-11-02T02:05:20.984Z,4.98
2022-11-02T02:10:22.814Z,4.98
2022-11-02T02:15:41.643Z,4.86
2022-11-02T02:21:03.988Z,4.86
2022-11-02T02:26:42.519Z,4.85
2022-11-02T02:31:54.758Z,4.87
2022-11-02T02:37:01.380Z,4.88
2022-11-02T02:42:10.200Z,4.87
2022-11-02T02:47:17.068Z,4.98
2022-11-02T02:52:20.536Z,5.07
2022-11-02T02:57:26.207Z,5.01
2022-11-02T03:02:33.681Z,4.99
2022-11-02T03:07:35.767Z,5.02
2022-11-02T03:12:44.738Z,5.10
2022-11-02T03:17:59.307Z,5.10
2022-11-02T03:23:12.304Z,5.19
2022-11-02T03:28:19.180Z,5.27
2022-11-02T03:33:30.193Z,5.37
2022-11-02T03:38:37.719Z,5.41
2022-11-02T03:43:42.235Z,5.55
2022-11-02T03:48:48.388Z,5.51
2022-11-02T03:53:57.461Z,5.54
2022-11-02T03:58:59.560Z,5.63
2022-11-02T04:04:04.340Z,5.64
2022-11-02T04:09:06.299Z,5.89
2022-11-02T04:14:09.021Z,5.99
2022-11-02T04:19:12.537Z,6.15
2022-11-02T04:24:14.562Z,6.13
2022-11-02T04:29:16.219Z,6.07
2022-11-02T04:34:19.665Z,5.92
2022-11-02T04:39:21.336Z,5.68
2022-11-02T04:44:26.279Z,5.64
2022-11-02T04:49:32.051Z,5.72
2022-11-02T04:54:34.286Z,5.93
2022-11-02T04:59:36.321Z,5.93
2022-11-02T05:04:39.805Z,6.10
2022-11-02T05:09:41.949Z,6.05
2022-11-02T05:14:43.913Z,6.14
2022-11-02T05:19:46.882Z,6.28
2022-11-02T05:24:48.470Z,6.23
2022-11-02T05:29:50.117Z,6.28
2022-11-02T05:34:53.537Z,6.31
2022-11-02T05:39:55.530Z,6.31
2022-11-02T05:44:57.503Z,6.26
2022-11-02T05:50:00.934Z,6.22
2022-11-02T05:55:03.020Z,6.26
2022-11-02T06:00:07.165Z,6.40
2022-11-02T06:05:11.086Z,6.41
2022-11-02T06:10:13.251Z,6.39
2022-11-02T06:15:15.327Z,6.45
2022-11-02T06:20:19.259Z,6.49
2022-11-02T06:25:20.903Z,6.57
2022-11-02T06:30:23.839Z,6.63
2022-11-02T06:35:27.273Z,6.70
2022-11-02T06:40:29.393Z,6.77
2022-11-02T06:45:31.039Z,6.82
2022-11-02T06:50:33.995Z,6.90
2022-11-02T06:55:35.641Z,6.87
2022-11-02T07:00:37.521Z,6.80
2022-11-02T07:05:41.272Z,6.88
2022-11-02T07:10:43.000Z,6.93
2022-11-02T07:15:45.252Z,7.00
2022-11-02T07:20:48.642Z,7.18
2022-11-02T07:25:50.605Z,7.49
2022-11-02T07:30:54.367Z,7.92
2022-11-02T07:35:57.970Z,8.46
2022-11-02T07:40:59.677Z,9.10
2022-11-02T07:46:02.100Z,9.43
2022-11-02T07:51:06.185Z,9.68
2022-11-02T07:56:07.877Z,9.90
2022-11-02T08:01:09.694Z,10.11
2022-11-02T08:06:13.221Z,10.35
2022-11-02T08:11:15.371Z,10.39
2022-11-02T08:16:17.497Z,10.47
2022-11-02T08:21:21.094Z,10.53
2022-11-02T08:26:22.758Z,10.57
2022-11-02T08:31:24.610Z,10.67
2022-11-02T08:36:27.604Z,10.85
2022-11-02T08:41:29.891Z,10.91
2022-11-02T08:46:32.219Z,10.99
2022-11-02T08:51:35.425Z,11.28
2022-11-02T08:56:37.614Z,11.41
2022-11-02T09:01:39.704Z,11.61
2022-11-02T09:06:43.382Z,12.08
2022-11-02T09:11:45.446Z,12.30
2022-11-02T09:16:47.459Z,12.58
2022-11-02T09:21:50.744Z,12.75
2022-11-02T09:26:52.558Z,12.92
2022-11-02T09:31:54.203Z,13.09
2022-11-02T09:36:57.220Z,13.34
2022-11-02T09:42:06.931Z,13.67
2022-11-02T09:48:03.007Z,14.14
2022-11-02T09:52:38.764Z,14.28
2022-11-02T09:57:45.843Z,14.57
2022-11-02T10:02:59.240Z,15.00
2022-11-02T10:08:20.344Z,18.06
2022-11-02T10:13:33.692Z,20.59
2022-11-02T10:18:37.528Z,20.41
2022-11-02T10:23:45.606Z,22.15
2022-11-02T10:28:49.705Z,22.34
2022-11-02T10:33:55.564Z,22.23
2022-11-02T10:39:11.612Z,22.51
2022-11-02T10:44:31.307Z,22.27
2022-11-02T10:50:09.602Z,22.90
2022-11-02T10:55:26.526Z,23.07
2022-11-02T11:00:31.179Z,21.86
2022-11-02T11:05:35.407Z,21.73
2022-11-02T11:10:38.756Z,19.03
2022-11-02T11:15:48.349Z,16.62
2022-11-02T11:20:56.213Z,15.83
2022-11-02T11:26:01.947Z,15.53
2022-11-02T11:31:07.952Z,15.28
2022-11-02T11:36:11.837Z,15.06
2022-11-02T11:41:15.521Z,15.23
2022-11-02T11:46:17.998Z,15.07
2022-11-02T11:51:35.395Z,15.03
2022-11-02T11:56:39.039Z,14.97
2022-11-02T12:01:41.162Z,14.81
2022-11-02T12:06:51.990Z,15.15
2022-11-02T12:12:03.749Z,15.28
2022-11-02T12:17:24.413Z,15.03
2022-11-02T12:22:38.490Z,15.00
2022-11-02T12:27:51.904Z,14.89
2022-11-02T12:33:14.401Z,15.22
2022-11-02T12:38:36.157Z,16.18
2022-11-02T12:43:46.153Z,16.27
2022-11-02T12:49:00.924Z,16.62
2022-11-02T12:54:10.460Z,16.78
2022-11-02T12:59:18.197Z,16.81
2022-11-02T13:04:28.135Z,16.27
2022-11-02T13:09:36.722Z,16.48
2022-11-02T13:14:43.125Z,16.39
2022-11-02T13:19:50.983Z,16.20
2022-11-02T13:25:02.817Z,16.22
2022-11-02T13:30:15.086Z,16.13
2022-11-02T13:35:20.799Z,15.92
2022-11-02T13:40:27.280Z,15.92
2022-11-02T13:45:47.704Z,15.66
2022-11-02T13:50:52.600Z,15.61
2022-11-02T13:55:59.199Z,15.60
2022-11-02T14:01:04.692Z,15.28
2022-11-02T14:06:12.167Z,14.96
2022-11-02T14:11:27.130Z,14.89
2022-11-02T14:16:45.992Z,14.73
2022-11-02T14:22:20.409Z,14.79
2022-11-02T14:27:30.010Z,14.64
2022-11-02T14:32:48.609Z,14.80
2022-11-02T14:38:18.057Z,14.83
2022-11-02T14:43:52.002Z,14.82
2022-11-02T14:48:58.421Z,14.61
2022-11-02T14:54:03.157Z,14.41
2022-11-02T14:59:05.400Z,14.11
2022-11-02T15:04:08.994Z,14.06
2022-11-02T15:09:11.412Z,13.87
2022-11-02T15:14:46.528Z,13.73
2022-11-02T15:19:51.926Z,13.57
2022-11-02T15:24:55.855Z,13.46
2022-11-02T15:29:58.768Z,13.19
2022-11-02T15:35:05.890Z,13.06
2022-11-02T15:40:20.131Z,13.06
2022-11-02T15:45:49.045Z,12.96
2022-11-02T15:51:03.439Z,12.87
2022-11-02T15:56:25.562Z,12.62
2022-11-02T16:01:28.432Z,12.49
2022-11-02T16:06:35.514Z,12.43
2022-11-02T16:11:37.785Z,12.29
2022-11-02T16:16:47.652Z,12.04
2022-11-02T16:21:51.447Z,11.92
2022-11-02T16:26:53.340Z,11.59
2022-11-02T16:31:55.342Z,11.50
2022-11-02T16:37:04.733Z,11.36
2022-11-02T16:42:15.355Z,11.35
2022-11-02T16:47:18.052Z,11.19
2022-11-02T16:52:25.938Z,11.14
2022-11-02T16:57:31.648Z,11.07
2022-11-02T17:02:37.221Z,11.02
2022-11-02T17:07:43.748Z,10.82
2022-11-02T17:12:48.204Z,10.49
2022-11-02T17:17:50.578Z,10.29
2022-11-02T17:22:57.916Z,10.14
2022-11-02T17:28:02.087Z,10.08
2022-11-02T17:33:10.249Z,9.96
2022-11-02T17:38:13.995Z,9.71
2022-11-02T17:43:16.027Z,9.49
2022-11-02T17:48:18.212Z,9.24
2022-11-02T17:53:22.879Z,9.02
2022-11-02T17:58:24.960Z,8.85
2022-11-02T18:03:31.079Z,8.61
2022-11-02T18:08:34.967Z,8.40
2022-11-02T18:13:37.605Z,8.21
2022-11-02T18:18:39.725Z,8.04
2022-11-02T18:23:43.462Z,7.91
2022-11-02T18:28:45.670Z,7.67
2022-11-02T18:33:47.713Z,7.48
2022-11-02T18:38:51.092Z,7.19
2022-11-02T18:43:56.823Z,6.99
2022-11-02T18:49:02.193Z,6.77
2022-11-02T18:54:06.475Z,6.66
2022-11-02T18:59:08.170Z,6.53
2022-11-02T19:04:16.974Z,6.33
2022-11-02T19:09:22.871Z,6.52
2022-11-02T19:14:25.017Z,6.94
2022-11-02T19:19:27.124Z,7.21
2022-11-02T19:24:30.788Z,7.16
2022-11-02T19:29:32.935Z,7.14
2022-11-02T19:34:35.175Z,7.07
2022-11-02T19:39:38.620Z,7.07
2022-11-02T19:44:42.646Z,6.95
2022-11-02T19:49:45.185Z,6.79
2022-11-02T19:54:48.138Z,6.58
2022-11-02T19:59:50.288Z,6.58
2022-11-02T20:04:52.547Z,6.42
2022-11-02T20:09:58.725Z,6.26
2022-11-02T20:15:01.451Z,6.25
2022-11-02T20:20:03.463Z,6.07
2022-11-02T20:25:07.918Z,5.98
2022-11-02T20:30:10.170Z,5.79
2022-11-02T20:35:13.868Z,5.83
2022-11-02T20:40:17.657Z,5.82
2022-11-02T20:45:19.289Z,5.68
2022-11-02T20:50:25.691Z,5.52
2022-11-02T20:55:29.187Z,5.39
2022-11-02T21:00:31.340Z,5.29
2022-11-02T21:05:33.313Z,5.25
2022-11-02T21:10:36.350Z,5.16
2022-11-02T21:15:38.025Z,5.06
2022-11-02T21:20:39.995Z,4.96
2022-11-02T21:25:43.756Z,4.86
2022-11-02T21:30:46.035Z,4.77
2022-11-02T21:35:48.128Z,4.67
2022-11-02T21:40:51.314Z,4.53
2022-11-02T21:45:54.730Z,4.46
2022-11-02T21:51:03.502Z,4.26
2022-11-02T21:56:09.468Z,4.21
2022-11-02T22:01:14.448Z,4.15
2022-11-02T22:06:16.404Z,3.99
2022-11-02T22:11:21.540Z,3.92
2022-11-02T22:16:25.596Z,3.95
2022-11-02T22:21:30.365Z,3.85
2022-11-02T22:26:35.548Z,3.75
2022-11-02T22:31:39.557Z,3.73
2022-11-02T22:36:43.216Z,3.79
2022-11-02T22:41:47.372Z,3.62
2022-11-02T22:46:50.596Z,3.55
2022-11-02T22:51:52.666Z,3.52
2022-11-02T22:56:56.153Z,3.38
2022-11-02T23:01:58.211Z,3.40
2022-11-02T23:07:00.314Z,3.36
2022-11-02T23:12:03.857Z,3.24
2022-11-02T23:17:05.942Z,3.29
2022-11-02T23:22:08.844Z,3.18
2022-11-02T23:27:12.484Z,3.14
2022-11-02T23:32:17.023Z,3.03
2022-11-02T23:37:18.984Z,3.02
2022-11-02T23:42:22.632Z,2.97
2022-11-02T23:47:24.618Z,2.97
2022-11-02T23:52:26.520Z,2.86
2022-11-02T23:57:30.535Z,2.68
